sensor_id;sensor_type;location;lat;lon;timestamp;P1;durP1;ratioP1;P2;durP2;ratioP2
27957;SDS011;15295;42.658;23.374;2022-10-17T00:00:50;26.58;;;14.35;;
27957;SDS011;15295;42.658;23.374;2022-10-17T00:03:15;24.75;;;14.63;;
27957;SDS011;15295;42.658;23.374;2022-10-17T00:05:44;31.58;;;13.45;;
27957;SDS011;15295;42.658;23.374;2022-10-17T00:08:10;27.95;;;14.05;;
27957;SDS011;15295;42.658;23.374;2022-10-17T00:10:37;31.42;;;14.55;;
27957;SDS011;15295;42.658;23.374;2022-10-17T00:13:04;21.10;;;13.13;;
27957;SDS011;15295;42.658;23.374;2022-10-17T00:15:31;23.30;;;12.73;;
27957;SDS011;15295;42.658;23.374;2022-10-17T00:17:57;26.45;;;11.93;;
27957;SDS011;15295;42.658;23.374;2022-10-17T00:20:23;22.67;;;10.60;;
27957;SDS011;15295;42.658;23.374;2022-10-17T00:22:49;18.17;;;9.18;;
27957;SDS011;15295;42.658;23.374;2022-10-17T00:25:15;13.05;;;7.45;;
27957;SDS011;15295;42.658;23.374;2022-10-17T00:27:41;12.65;;;6.35;;
27957;SDS011;15295;42.658;23.374;2022-10-17T00:32:37;10.00;;;6.00;;
27957;SDS011;15295;42.658;23.374;2022-10-17T00:35:09;10.10;;;5.38;;
27957;SDS011;15295;42.658;23.374;2022-10-17T00:37:36;10.55;;;6.95;;
27957;SDS011;15295;42.658;23.374;2022-10-17T00:40:04;10.98;;;6.20;;
27957;SDS011;15295;42.658;23.374;2022-10-17T00:42:30;12.57;;;6.00;;
27957;SDS011;15295;42.658;23.374;2022-10-17T00:45:05;10.93;;;5.90;;
27957;SDS011;15295;42.658;23.374;2022-10-17T00:47:37;11.18;;;6.07;;
27957;SDS011;15295;42.658;23.374;2022-10-17T00:50:05;13.45;;;5.78;;
27957;SDS011;15295;42.658;23.374;2022-10-17T00:52:32;11.13;;;5.90;;
27957;SDS011;15295;42.658;23.374;2022-10-17T00:55:09;9.82;;;6.05;;
27957;SDS011;15295;42.658;23.374;2022-10-17T00:57:43;10.45;;;6.50;;
27957;SDS011;15295;42.658;23.374;2022-10-17T01:00:11;9.88;;;5.80;;
27957;SDS011;15295;42.658;23.374;2022-10-17T01:02:37;10.02;;;5.97;;
27957;SDS011;15295;42.658;23.374;2022-10-17T01:05:03;11.68;;;6.97;;
27957;SDS011;15295;42.658;23.374;2022-10-17T01:07:31;12.35;;;6.60;;
27957;SDS011;15295;42.658;23.374;2022-10-17T01:09:58;11.80;;;8.45;;
27957;SDS011;15295;42.658;23.374;2022-10-17T01:15:28;18.95;;;9.25;;
27957;SDS011;15295;42.658;23.374;2022-10-17T01:20:52;14.98;;;9.02;;
27957;SDS011;15295;42.658;23.374;2022-10-17T01:33:41;14.23;;;8.18;;
27957;SDS011;15295;42.658;23.374;2022-10-17T01:42:18;15.73;;;7.80;;
27957;SDS011;15295;42.658;23.374;2022-10-17T01:45:52;14.63;;;8.35;;
27957;SDS011;15295;42.658;23.374;2022-10-17T01:48:12;14.00;;;7.50;;
27957;SDS011;15295;42.658;23.374;2022-10-17T01:50:45;11.63;;;7.70;;
27957;SDS011;15295;42.658;23.374;2022-10-17T01:53:24;17.10;;;8.27;;
27957;SDS011;15295;42.658;23.374;2022-10-17T01:56:01;10.48;;;7.35;;
27957;SDS011;15295;42.658;23.374;2022-10-17T01:58:32;14.13;;;7.80;;
27957;SDS011;15295;42.658;23.374;2022-10-17T02:01:04;10.63;;;7.13;;
27957;SDS011;15295;42.658;23.374;2022-10-17T02:03:31;14.70;;;7.63;;
27957;SDS011;15295;42.658;23.374;2022-10-17T02:06:04;17.52;;;8.00;;
27957;SDS011;15295;42.658;23.374;2022-10-17T02:08:43;13.80;;;7.40;;
27957;SDS011;15295;42.658;23.374;2022-10-17T02:11:17;12.55;;;8.00;;
27957;SDS011;15295;42.658;23.374;2022-10-17T02:25:14;12.60;;;7.15;;
27957;SDS011;15295;42.658;23.374;2022-10-17T02:30:40;11.30;;;6.97;;
27957;SDS011;15295;42.658;23.374;2022-10-17T02:33:29;10.68;;;7.50;;
27957;SDS011;15295;42.658;23.374;2022-10-17T02:35:58;11.77;;;7.53;;
27957;SDS011;15295;42.658;23.374;2022-10-17T02:38:35;11.25;;;7.30;;
27957;SDS011;15295;42.658;23.374;2022-10-17T02:41:06;12.07;;;6.90;;
27957;SDS011;15295;42.658;23.374;2022-10-17T02:43:35;12.30;;;7.07;;
27957;SDS011;15295;42.658;23.374;2022-10-17T02:46:05;14.27;;;7.22;;
27957;SDS011;15295;42.658;23.374;2022-10-17T02:48:37;18.02;;;7.70;;
27957;SDS011;15295;42.658;23.374;2022-10-17T02:56:50;12.15;;;6.93;;
27957;SDS011;15295;42.658;23.374;2022-10-17T02:59:21;11.32;;;7.70;;
27957;SDS011;15295;42.658;23.374;2022-10-17T03:01:51;15.88;;;8.00;;
27957;SDS011;15295;42.658;23.374;2022-10-17T03:04:22;14.43;;;7.68;;
27957;SDS011;15295;42.658;23.374;2022-10-17T03:06:49;13.57;;;8.13;;
27957;SDS011;15295;42.658;23.374;2022-10-17T03:09:14;14.35;;;8.20;;
27957;SDS011;15295;42.658;23.374;2022-10-17T03:11:41;16.67;;;8.38;;
27957;SDS011;15295;42.658;23.374;2022-10-17T03:14:13;12.88;;;8.60;;
27957;SDS011;15295;42.658;23.374;2022-10-17T03:16:39;15.23;;;8.15;;
27957;SDS011;15295;42.658;23.374;2022-10-17T03:19:06;17.88;;;8.98;;
27957;SDS011;15295;42.658;23.374;2022-10-17T03:21:32;16.88;;;8.73;;
27957;SDS011;15295;42.658;23.374;2022-10-17T03:24:00;12.95;;;9.02;;
27957;SDS011;15295;42.658;23.374;2022-10-17T03:26:28;16.88;;;9.90;;
27957;SDS011;15295;42.658;23.374;2022-10-17T03:28:54;16.65;;;9.48;;
27957;SDS011;15295;42.658;23.374;2022-10-17T03:31:22;20.23;;;9.45;;
27957;SDS011;15295;42.658;23.374;2022-10-17T03:33:55;19.45;;;10.35;;
27957;SDS011;15295;42.658;23.374;2022-10-17T03:36:22;15.10;;;9.27;;
27957;SDS011;15295;42.658;23.374;2022-10-17T03:38:53;18.85;;;10.50;;
27957;SDS011;15295;42.658;23.374;2022-10-17T03:41:21;19.55;;;9.88;;
27957;SDS011;15295;42.658;23.374;2022-10-17T03:43:51;18.25;;;10.68;;
27957;SDS011;15295;42.658;23.374;2022-10-17T03:46:18;18.92;;;10.05;;
27957;SDS011;15295;42.658;23.374;2022-10-17T03:48:43;13.80;;;8.25;;
27957;SDS011;15295;42.658;23.374;2022-10-17T03:51:10;12.98;;;8.48;;
27957;SDS011;15295;42.658;23.374;2022-10-17T03:53:38;16.25;;;8.40;;
27957;SDS011;15295;42.658;23.374;2022-10-17T03:56:12;14.85;;;8.43;;
27957;SDS011;15295;42.658;23.374;2022-10-17T03:59:00;15.27;;;8.05;;
27957;SDS011;15295;42.658;23.374;2022-10-17T04:01:26;10.95;;;7.97;;
27957;SDS011;15295;42.658;23.374;2022-10-17T04:04:10;13.23;;;8.90;;
27957;SDS011;15295;42.658;23.374;2022-10-17T04:06:49;17.67;;;8.27;;
27957;SDS011;15295;42.658;23.374;2022-10-17T04:09:15;13.60;;;8.38;;
27957;SDS011;15295;42.658;23.374;2022-10-17T04:11:41;15.30;;;9.02;;
27957;SDS011;15295;42.658;23.374;2022-10-17T04:14:11;15.98;;;9.18;;
27957;SDS011;15295;42.658;23.374;2022-10-17T04:16:48;16.52;;;9.38;;
27957;SDS011;15295;42.658;23.374;2022-10-17T04:19:19;14.43;;;8.95;;
27957;SDS011;15295;42.658;23.374;2022-10-17T04:21:47;15.90;;;8.75;;
27957;SDS011;15295;42.658;23.374;2022-10-17T04:24:34;14.20;;;8.55;;
27957;SDS011;15295;42.658;23.374;2022-10-17T04:29:53;15.45;;;8.52;;
27957;SDS011;15295;42.658;23.374;2022-10-17T04:32:21;13.27;;;8.45;;
27957;SDS011;15295;42.658;23.374;2022-10-17T04:37:29;15.60;;;8.68;;
27957;SDS011;15295;42.658;23.374;2022-10-17T04:39:55;17.80;;;8.73;;
27957;SDS011;15295;42.658;23.374;2022-10-17T04:42:20;17.33;;;9.20;;
27957;SDS011;15295;42.658;23.374;2022-10-17T04:44:52;25.83;;;11.63;;
27957;SDS011;15295;42.658;23.374;2022-10-17T04:47:18;28.50;;;12.45;;
27957;SDS011;15295;42.658;23.374;2022-10-17T04:49:46;19.65;;;9.70;;
27957;SDS011;15295;42.658;23.374;2022-10-17T04:52:26;17.92;;;9.55;;
27957;SDS011;15295;42.658;23.374;2022-10-17T04:54:52;20.58;;;10.35;;
27957;SDS011;15295;42.658;23.374;2022-10-17T04:57:23;16.48;;;8.75;;
27957;SDS011;15295;42.658;23.374;2022-10-17T04:59:51;14.65;;;9.02;;
27957;SDS011;15295;42.658;23.374;2022-10-17T05:02:17;17.98;;;9.18;;
27957;SDS011;15295;42.658;23.374;2022-10-17T05:04:50;13.63;;;8.25;;
27957;SDS011;15295;42.658;23.374;2022-10-17T05:07:15;13.88;;;8.43;;
27957;SDS011;15295;42.658;23.374;2022-10-17T05:09:42;16.48;;;8.80;;
27957;SDS011;15295;42.658;23.374;2022-10-17T05:12:18;17.00;;;9.60;;
27957;SDS011;15295;42.658;23.374;2022-10-17T05:15:04;16.10;;;9.43;;
27957;SDS011;15295;42.658;23.374;2022-10-17T05:17:33;16.58;;;9.23;;
27957;SDS011;15295;42.658;23.374;2022-10-17T05:20:13;19.90;;;10.45;;
27957;SDS011;15295;42.658;23.374;2022-10-17T05:22:39;23.40;;;13.23;;
27957;SDS011;15295;42.658;23.374;2022-10-17T05:25:08;22.83;;;10.88;;
27957;SDS011;15295;42.658;23.374;2022-10-17T05:27:38;18.23;;;10.90;;
27957;SDS011;15295;42.658;23.374;2022-10-17T05:30:05;37.85;;;14.73;;
27957;SDS011;15295;42.658;23.374;2022-10-17T05:32:34;63.75;;;25.63;;
27957;SDS011;15295;42.658;23.374;2022-10-17T05:35:01;40.08;;;18.67;;
27957;SDS011;15295;42.658;23.374;2022-10-17T05:37:29;39.50;;;18.70;;
27957;SDS011;15295;42.658;23.374;2022-10-17T05:40:02;32.13;;;16.23;;
27957;SDS011;15295;42.658;23.374;2022-10-17T05:42:29;23.45;;;12.50;;
27957;SDS011;15295;42.658;23.374;2022-10-17T05:44:59;24.42;;;12.32;;
27957;SDS011;15295;42.658;23.374;2022-10-17T05:47:28;21.58;;;12.50;;
27957;SDS011;15295;42.658;23.374;2022-10-17T05:50:07;21.35;;;12.00;;
27957;SDS011;15295;42.658;23.374;2022-10-17T05:52:38;23.58;;;13.23;;
27957;SDS011;15295;42.658;23.374;2022-10-17T05:55:08;32.28;;;14.05;;
27957;SDS011;15295;42.658;23.374;2022-10-17T05:57:33;47.67;;;16.50;;
27957;SDS011;15295;42.658;23.374;2022-10-17T06:00:19;25.02;;;13.93;;
27957;SDS011;15295;42.658;23.374;2022-10-17T06:02:50;23.75;;;12.05;;
27957;SDS011;15295;42.658;23.374;2022-10-17T06:05:16;26.73;;;14.10;;
27957;SDS011;15295;42.658;23.374;2022-10-17T06:07:42;26.83;;;15.20;;
27957;SDS011;15295;42.658;23.374;2022-10-17T06:12:44;19.70;;;12.43;;
27957;SDS011;15295;42.658;23.374;2022-10-17T06:15:13;20.92;;;12.20;;
27957;SDS011;15295;42.658;23.374;2022-10-17T06:17:43;18.55;;;12.25;;
27957;SDS011;15295;42.658;23.374;2022-10-17T06:20:12;21.25;;;13.13;;
27957;SDS011;15295;42.658;23.374;2022-10-17T06:22:41;28.23;;;14.45;;
27957;SDS011;15295;42.658;23.374;2022-10-17T06:25:14;33.42;;;14.80;;
27957;SDS011;15295;42.658;23.374;2022-10-17T06:30:26;36.78;;;17.42;;
27957;SDS011;15295;42.658;23.374;2022-10-17T06:32:56;31.65;;;17.13;;
27957;SDS011;15295;42.658;23.374;2022-10-17T06:35:21;32.90;;;18.10;;
27957;SDS011;15295;42.658;23.374;2022-10-17T06:37:51;39.75;;;18.38;;
27957;SDS011;15295;42.658;23.374;2022-10-17T06:40:20;33.83;;;18.70;;
27957;SDS011;15295;42.658;23.374;2022-10-17T06:42:47;40.05;;;18.33;;
27957;SDS011;15295;42.658;23.374;2022-10-17T06:45:14;40.05;;;18.88;;
27957;SDS011;15295;42.658;23.374;2022-10-17T06:47:40;41.60;;;20.13;;
27957;SDS011;15295;42.658;23.374;2022-10-17T06:50:08;44.33;;;18.45;;
27957;SDS011;15295;42.658;23.374;2022-10-17T06:52:44;36.15;;;19.13;;
27957;SDS011;15295;42.658;23.374;2022-10-17T06:55:17;42.25;;;19.95;;
27957;SDS011;15295;42.658;23.374;2022-10-17T06:57:55;39.30;;;18.77;;
27957;SDS011;15295;42.658;23.374;2022-10-17T07:05:51;40.30;;;18.58;;
27957;SDS011;15295;42.658;23.374;2022-10-17T07:08:31;56.05;;;32.08;;
27957;SDS011;15295;42.658;23.374;2022-10-17T07:13:52;42.35;;;19.40;;
27957;SDS011;15295;42.658;23.374;2022-10-17T07:17:01;34.38;;;17.70;;
27957;SDS011;15295;42.658;23.374;2022-10-17T07:20:00;35.13;;;19.33;;
27957;SDS011;15295;42.658;23.374;2022-10-17T07:22:31;35.45;;;19.27;;
27957;SDS011;15295;42.658;23.374;2022-10-17T07:24:57;42.95;;;18.98;;
27957;SDS011;15295;42.658;23.374;2022-10-17T07:27:25;31.65;;;15.98;;
27957;SDS011;15295;42.658;23.374;2022-10-17T07:30:04;35.72;;;17.80;;
27957;SDS011;15295;42.658;23.374;2022-10-17T07:32:32;34.58;;;17.42;;
27957;SDS011;15295;42.658;23.374;2022-10-17T07:35:19;33.63;;;19.48;;
27957;SDS011;15295;42.658;23.374;2022-10-17T07:37:53;32.47;;;17.60;;
27957;SDS011;15295;42.658;23.374;2022-10-17T07:43:17;43.28;;;20.90;;
27957;SDS011;15295;42.658;23.374;2022-10-17T07:45:49;33.03;;;17.25;;
27957;SDS011;15295;42.658;23.374;2022-10-17T07:48:20;36.42;;;16.85;;
27957;SDS011;15295;42.658;23.374;2022-10-17T07:50:48;37.63;;;17.58;;
27957;SDS011;15295;42.658;23.374;2022-10-17T07:53:17;35.72;;;18.38;;
27957;SDS011;15295;42.658;23.374;2022-10-17T07:55:43;37.60;;;18.35;;
27957;SDS011;15295;42.658;23.374;2022-10-17T07:58:13;33.05;;;19.08;;
27957;SDS011;15295;42.658;23.374;2022-10-17T08:00:48;34.22;;;18.15;;
27957;SDS011;15295;42.658;23.374;2022-10-17T08:03:16;61.53;;;37.15;;
27957;SDS011;15295;42.658;23.374;2022-10-17T08:05:42;41.83;;;24.33;;
27957;SDS011;15295;42.658;23.374;2022-10-17T08:08:14;39.45;;;19.80;;
27957;SDS011;15295;42.658;23.374;2022-10-17T08:10:49;38.05;;;17.90;;
27957;SDS011;15295;42.658;23.374;2022-10-17T08:13:22;29.70;;;17.95;;
27957;SDS011;15295;42.658;23.374;2022-10-17T08:15:50;41.90;;;25.40;;
27957;SDS011;15295;42.658;23.374;2022-10-17T08:18:19;43.47;;;29.02;;
27957;SDS011;15295;42.658;23.374;2022-10-17T08:20:49;37.28;;;22.73;;
27957;SDS011;15295;42.658;23.374;2022-10-17T08:23:17;34.58;;;17.77;;
27957;SDS011;15295;42.658;23.374;2022-10-17T08:25:45;110.97;;;68.05;;
27957;SDS011;15295;42.658;23.374;2022-10-17T08:28:18;38.10;;;21.73;;
27957;SDS011;15295;42.658;23.374;2022-10-17T08:33:17;53.88;;;35.03;;
27957;SDS011;15295;42.658;23.374;2022-10-17T08:35:53;47.72;;;21.95;;
27957;SDS011;15295;42.658;23.374;2022-10-17T08:38:25;30.42;;;18.48;;
27957;SDS011;15295;42.658;23.374;2022-10-17T08:41:04;31.60;;;16.60;;
27957;SDS011;15295;42.658;23.374;2022-10-17T08:43:53;32.33;;;16.58;;
27957;SDS011;15295;42.658;23.374;2022-10-17T08:46:43;26.30;;;15.63;;
27957;SDS011;15295;42.658;23.374;2022-10-17T08:49:15;27.60;;;14.93;;
27957;SDS011;15295;42.658;23.374;2022-10-17T08:51:57;26.60;;;15.10;;
27957;SDS011;15295;42.658;23.374;2022-10-17T08:54:52;29.60;;;13.65;;
27957;SDS011;15295;42.658;23.374;2022-10-17T08:57:28;30.73;;;12.73;;
27957;SDS011;15295;42.658;23.374;2022-10-17T08:59:56;24.92;;;16.92;;
27957;SDS011;15295;42.658;23.374;2022-10-17T09:08:39;37.70;;;19.60;;
27957;SDS011;15295;42.658;23.374;2022-10-17T09:20:24;44.25;;;24.27;;
27957;SDS011;15295;42.658;23.374;2022-10-17T09:22:56;25.35;;;10.77;;
27957;SDS011;15295;42.658;23.374;2022-10-17T09:26:14;25.30;;;10.63;;
27957;SDS011;15295;42.658;23.374;2022-10-17T09:28:40;21.55;;;8.73;;
27957;SDS011;15295;42.658;23.374;2022-10-17T09:31:28;17.00;;;9.40;;
27957;SDS011;15295;42.658;23.374;2022-10-17T09:34:09;17.85;;;9.30;;
27957;SDS011;15295;42.658;23.374;2022-10-17T09:36:41;24.67;;;12.63;;
27957;SDS011;15295;42.658;23.374;2022-10-17T09:39:13;20.15;;;10.27;;
27957;SDS011;15295;42.658;23.374;2022-10-17T09:41:58;21.10;;;9.88;;
27957;SDS011;15295;42.658;23.374;2022-10-17T09:47:11;11.75;;;7.40;;
27957;SDS011;15295;42.658;23.374;2022-10-17T09:50:23;13.93;;;6.93;;
27957;SDS011;15295;42.658;23.374;2022-10-17T09:53:15;15.10;;;6.82;;
27957;SDS011;15295;42.658;23.374;2022-10-17T09:55:58;10.80;;;6.60;;
27957;SDS011;15295;42.658;23.374;2022-10-17T09:58:48;12.38;;;6.07;;
27957;SDS011;15295;42.658;23.374;2022-10-17T10:01:28;11.38;;;4.90;;
27957;SDS011;15295;42.658;23.374;2022-10-17T10:04:09;10.55;;;5.07;;
27957;SDS011;15295;42.658;23.374;2022-10-17T10:07:02;12.95;;;5.07;;
27957;SDS011;15295;42.658;23.374;2022-10-17T10:09:33;14.73;;;5.53;;
27957;SDS011;15295;42.658;23.374;2022-10-17T10:12:15;10.75;;;4.47;;
27957;SDS011;15295;42.658;23.374;2022-10-17T10:14:53;9.02;;;4.47;;
27957;SDS011;15295;42.658;23.374;2022-10-17T10:17:39;9.30;;;4.15;;
27957;SDS011;15295;42.658;23.374;2022-10-17T10:23:09;8.05;;;3.80;;
27957;SDS011;15295;42.658;23.374;2022-10-17T10:25:49;6.70;;;3.72;;
27957;SDS011;15295;42.658;23.374;2022-10-17T10:28:28;5.10;;;3.97;;
27957;SDS011;15295;42.658;23.374;2022-10-17T10:31:09;10.95;;;4.40;;
27957;SDS011;15295;42.658;23.374;2022-10-17T10:37:02;8.85;;;3.80;;
27957;SDS011;15295;42.658;23.374;2022-10-17T10:42:33;5.95;;;3.60;;
27957;SDS011;15295;42.658;23.374;2022-10-17T10:56:42;8.05;;;3.30;;
27957;SDS011;15295;42.658;23.374;2022-10-17T10:59:28;5.13;;;3.42;;
27957;SDS011;15295;42.658;23.374;2022-10-17T11:02:03;6.90;;;3.63;;
27957;SDS011;15295;42.658;23.374;2022-10-17T11:05:24;10.25;;;3.92;;
27957;SDS011;15295;42.658;23.374;2022-10-17T11:08:30;5.72;;;3.70;;
27957;SDS011;15295;42.658;23.374;2022-10-17T11:11:10;5.90;;;3.67;;
27957;SDS011;15295;42.658;23.374;2022-10-17T11:16:51;6.97;;;3.50;;
27957;SDS011;15295;42.658;23.374;2022-10-17T11:20:02;6.72;;;3.95;;
27957;SDS011;15295;42.658;23.374;2022-10-17T11:22:37;9.90;;;4.25;;
27957;SDS011;15295;42.658;23.374;2022-10-17T11:25:37;4.38;;;2.92;;
27957;SDS011;15295;42.658;23.374;2022-10-17T11:28:43;7.20;;;3.53;;
27957;SDS011;15295;42.658;23.374;2022-10-17T11:31:13;6.40;;;3.67;;
27957;SDS011;15295;42.658;23.374;2022-10-17T11:36:41;7.63;;;3.78;;
27957;SDS011;15295;42.658;23.374;2022-10-17T11:39:17;6.72;;;3.70;;
27957;SDS011;15295;42.658;23.374;2022-10-17T11:41:57;4.32;;;2.97;;
27957;SDS011;15295;42.658;23.374;2022-10-17T11:44:48;11.30;;;3.70;;
27957;SDS011;15295;42.658;23.374;2022-10-17T11:50:38;8.40;;;3.58;;
27957;SDS011;15295;42.658;23.374;2022-10-17T11:53:27;5.82;;;3.10;;
27957;SDS011;15295;42.658;23.374;2022-10-17T11:55:56;4.10;;;3.33;;
27957;SDS011;15295;42.658;23.374;2022-10-17T11:58:45;8.70;;;3.53;;
27957;SDS011;15295;42.658;23.374;2022-10-17T12:01:58;7.45;;;4.03;;
27957;SDS011;15295;42.658;23.374;2022-10-17T12:14:47;6.13;;;4.07;;
27957;SDS011;15295;42.658;23.374;2022-10-17T12:17:34;8.90;;;3.80;;
27957;SDS011;15295;42.658;23.374;2022-10-17T12:23:03;7.38;;;3.75;;
27957;SDS011;15295;42.658;23.374;2022-10-17T12:25:57;8.63;;;3.60;;
27957;SDS011;15295;42.658;23.374;2022-10-17T12:28:29;8.45;;;3.10;;
27957;SDS011;15295;42.658;23.374;2022-10-17T12:33:59;6.05;;;3.50;;
27957;SDS011;15295;42.658;23.374;2022-10-17T12:42:27;5.45;;;2.90;;
27957;SDS011;15295;42.658;23.374;2022-10-17T12:44:59;6.00;;;3.22;;
27957;SDS011;15295;42.658;23.374;2022-10-17T12:47:36;5.97;;;3.33;;
27957;SDS011;15295;42.658;23.374;2022-10-17T12:52:57;4.78;;;3.30;;
27957;SDS011;15295;42.658;23.374;2022-10-17T12:55:48;4.45;;;3.47;;
27957;SDS011;15295;42.658;23.374;2022-10-17T12:58:28;6.75;;;2.97;;
27957;SDS011;15295;42.658;23.374;2022-10-17T13:01:17;4.63;;;3.15;;
27957;SDS011;15295;42.658;23.374;2022-10-17T13:04:07;6.20;;;2.90;;
27957;SDS011;15295;42.658;23.374;2022-10-17T13:06:44;5.63;;;2.88;;
27957;SDS011;15295;42.658;23.374;2022-10-17T13:12:11;6.05;;;2.80;;
27957;SDS011;15295;42.658;23.374;2022-10-17T13:17:54;6.15;;;2.67;;
27957;SDS011;15295;42.658;23.374;2022-10-17T13:20:24;5.47;;;2.75;;
27957;SDS011;15295;42.658;23.374;2022-10-17T13:23:40;6.72;;;3.20;;
27957;SDS011;15295;42.658;23.374;2022-10-17T13:26:18;5.63;;;2.63;;
27957;SDS011;15295;42.658;23.374;2022-10-17T13:29:05;8.18;;;2.38;;
27957;SDS011;15295;42.658;23.374;2022-10-17T13:31:43;5.72;;;2.80;;
27957;SDS011;15295;42.658;23.374;2022-10-17T13:34:37;3.03;;;2.20;;
27957;SDS011;15295;42.658;23.374;2022-10-17T13:37:12;4.30;;;2.55;;
27957;SDS011;15295;42.658;23.374;2022-10-17T13:39:54;4.90;;;2.40;;
27957;SDS011;15295;42.658;23.374;2022-10-17T13:42:35;3.80;;;2.33;;
27957;SDS011;15295;42.658;23.374;2022-10-17T13:45:32;4.78;;;2.65;;
27957;SDS011;15295;42.658;23.374;2022-10-17T13:48:19;5.78;;;2.50;;
27957;SDS011;15295;42.658;23.374;2022-10-17T13:51:03;6.15;;;2.75;;
27957;SDS011;15295;42.658;23.374;2022-10-17T13:53:38;3.37;;;2.13;;
27957;SDS011;15295;42.658;23.374;2022-10-17T13:59:19;5.55;;;2.50;;
27957;SDS011;15295;42.658;23.374;2022-10-17T14:02:16;6.70;;;3.45;;
27957;SDS011;15295;42.658;23.374;2022-10-17T14:04:45;6.03;;;3.03;;
27957;SDS011;15295;42.658;23.374;2022-10-17T14:07:26;8.15;;;3.20;;
27957;SDS011;15295;42.658;23.374;2022-10-17T14:10:20;6.95;;;2.90;;
27957;SDS011;15295;42.658;23.374;2022-10-17T14:12:54;6.97;;;3.25;;
27957;SDS011;15295;42.658;23.374;2022-10-17T14:15:32;8.85;;;3.35;;
27957;SDS011;15295;42.658;23.374;2022-10-17T14:18:16;8.32;;;3.25;;
27957;SDS011;15295;42.658;23.374;2022-10-17T14:20:46;9.50;;;3.33;;
27957;SDS011;15295;42.658;23.374;2022-10-17T14:23:36;8.38;;;3.75;;
27957;SDS011;15295;42.658;23.374;2022-10-17T14:26:19;10.02;;;3.40;;
27957;SDS011;15295;42.658;23.374;2022-10-17T14:28:49;6.13;;;3.25;;
27957;SDS011;15295;42.658;23.374;2022-10-17T14:31:31;8.68;;;4.05;;
27957;SDS011;15295;42.658;23.374;2022-10-17T14:34:21;8.07;;;3.40;;
27957;SDS011;15295;42.658;23.374;2022-10-17T14:36:51;6.35;;;3.90;;
27957;SDS011;15295;42.658;23.374;2022-10-17T14:39:18;9.45;;;3.60;;
27957;SDS011;15295;42.658;23.374;2022-10-17T14:41:52;11.48;;;3.90;;
27957;SDS011;15295;42.658;23.374;2022-10-17T14:44:52;9.50;;;3.80;;
27957;SDS011;15295;42.658;23.374;2022-10-17T14:47:28;11.73;;;4.18;;
27957;SDS011;15295;42.658;23.374;2022-10-17T14:50:03;6.93;;;3.85;;
27957;SDS011;15295;42.658;23.374;2022-10-17T14:52:48;14.48;;;4.65;;
27957;SDS011;15295;42.658;23.374;2022-10-17T14:55:29;8.38;;;4.32;;
27957;SDS011;15295;42.658;23.374;2022-10-17T14:58:23;6.82;;;3.95;;
27957;SDS011;15295;42.658;23.374;2022-10-17T15:00:53;7.97;;;3.63;;
27957;SDS011;15295;42.658;23.374;2022-10-17T15:03:25;9.02;;;4.20;;
27957;SDS011;15295;42.658;23.374;2022-10-17T15:05:54;12.20;;;4.15;;
27957;SDS011;15295;42.658;23.374;2022-10-17T15:08:25;8.30;;;4.60;;
27957;SDS011;15295;42.658;23.374;2022-10-17T15:10:51;15.73;;;8.70;;
27957;SDS011;15295;42.658;23.374;2022-10-17T15:13:27;6.50;;;4.50;;
27957;SDS011;15295;42.658;23.374;2022-10-17T15:15:52;11.75;;;5.78;;
27957;SDS011;15295;42.658;23.374;2022-10-17T15:18:19;11.55;;;5.80;;
27957;SDS011;15295;42.658;23.374;2022-10-17T15:20:45;11.85;;;5.68;;
27957;SDS011;15295;42.658;23.374;2022-10-17T15:23:12;11.32;;;5.05;;
27957;SDS011;15295;42.658;23.374;2022-10-17T15:25:39;7.28;;;3.92;;
27957;SDS011;15295;42.658;23.374;2022-10-17T15:28:07;10.05;;;3.70;;
27957;SDS011;15295;42.658;23.374;2022-10-17T15:30:36;12.27;;;4.93;;
27957;SDS011;15295;42.658;23.374;2022-10-17T15:33:04;9.18;;;4.63;;
27957;SDS011;15295;42.658;23.374;2022-10-17T15:35:32;12.40;;;4.90;;
27957;SDS011;15295;42.658;23.374;2022-10-17T15:37:58;10.00;;;5.22;;
27957;SDS011;15295;42.658;23.374;2022-10-17T15:40:33;11.85;;;5.07;;
27957;SDS011;15295;42.658;23.374;2022-10-17T15:43:29;12.68;;;5.00;;
27957;SDS011;15295;42.658;23.374;2022-10-17T15:48:43;17.88;;;4.80;;
27957;SDS011;15295;42.658;23.374;2022-10-17T15:51:09;15.20;;;5.35;;
27957;SDS011;15295;42.658;23.374;2022-10-17T15:53:41;12.43;;;4.85;;
27957;SDS011;15295;42.658;23.374;2022-10-17T15:56:07;14.48;;;5.95;;
27957;SDS011;15295;42.658;23.374;2022-10-17T15:58:48;11.90;;;6.25;;
27957;SDS011;15295;42.658;23.374;2022-10-17T16:01:22;12.82;;;5.22;;
27957;SDS011;15295;42.658;23.374;2022-10-17T16:04:11;14.60;;;5.85;;
27957;SDS011;15295;42.658;23.374;2022-10-17T16:06:41;17.73;;;5.40;;
27957;SDS011;15295;42.658;23.374;2022-10-17T16:09:10;11.40;;;5.55;;
27957;SDS011;15295;42.658;23.374;2022-10-17T16:11:42;10.60;;;5.70;;
27957;SDS011;15295;42.658;23.374;2022-10-17T16:14:15;17.00;;;6.43;;
27957;SDS011;15295;42.658;23.374;2022-10-17T16:16:43;22.20;;;7.63;;
27957;SDS011;15295;42.658;23.374;2022-10-17T16:19:12;18.23;;;7.07;;
27957;SDS011;15295;42.658;23.374;2022-10-17T16:21:40;14.90;;;8.10;;
27957;SDS011;15295;42.658;23.374;2022-10-17T16:24:10;18.52;;;9.07;;
27957;SDS011;15295;42.658;23.374;2022-10-17T16:26:37;24.20;;;9.90;;
27957;SDS011;15295;42.658;23.374;2022-10-17T16:29:05;24.50;;;10.38;;
27957;SDS011;15295;42.658;23.374;2022-10-17T16:31:41;26.83;;;10.90;;
27957;SDS011;15295;42.658;23.374;2022-10-17T16:34:10;21.55;;;10.27;;
27957;SDS011;15295;42.658;23.374;2022-10-17T16:36:38;25.45;;;10.05;;
27957;SDS011;15295;42.658;23.374;2022-10-17T16:39:04;23.40;;;9.95;;
27957;SDS011;15295;42.658;23.374;2022-10-17T16:41:32;28.58;;;11.30;;
27957;SDS011;15295;42.658;23.374;2022-10-17T16:44:08;29.95;;;11.07;;
27957;SDS011;15295;42.658;23.374;2022-10-17T16:46:38;24.73;;;10.32;;
27957;SDS011;15295;42.658;23.374;2022-10-17T16:49:04;23.60;;;11.32;;
27957;SDS011;15295;42.658;23.374;2022-10-17T16:51:33;23.25;;;8.93;;
27957;SDS011;15295;42.658;23.374;2022-10-17T16:54:01;21.67;;;7.97;;
27957;SDS011;15295;42.658;23.374;2022-10-17T16:56:30;19.83;;;7.85;;
27957;SDS011;15295;42.658;23.374;2022-10-17T16:58:57;57.50;;;27.08;;
27957;SDS011;15295;42.658;23.374;2022-10-17T17:01:25;40.72;;;21.27;;
27957;SDS011;15295;42.658;23.374;2022-10-17T17:03:52;35.40;;;17.88;;
27957;SDS011;15295;42.658;23.374;2022-10-17T17:17:07;16.25;;;7.63;;
27957;SDS011;15295;42.658;23.374;2022-10-17T17:19:37;14.13;;;8.13;;
27957;SDS011;15295;42.658;23.374;2022-10-17T17:22:02;14.80;;;6.75;;
27957;SDS011;15295;42.658;23.374;2022-10-17T17:24:35;12.45;;;6.60;;
27957;SDS011;15295;42.658;23.374;2022-10-17T17:27:01;17.88;;;7.55;;
27957;SDS011;15295;42.658;23.374;2022-10-17T17:29:26;14.23;;;7.22;;
27957;SDS011;15295;42.658;23.374;2022-10-17T17:31:52;12.90;;;6.57;;
27957;SDS011;15295;42.658;23.374;2022-10-17T17:34:17;17.55;;;7.93;;
27957;SDS011;15295;42.658;23.374;2022-10-17T17:36:43;10.95;;;6.65;;
27957;SDS011;15295;42.658;23.374;2022-10-17T17:39:10;17.58;;;6.68;;
27957;SDS011;15295;42.658;23.374;2022-10-17T17:41:36;14.77;;;6.95;;
27957;SDS011;15295;42.658;23.374;2022-10-17T17:44:03;11.35;;;6.28;;
27957;SDS011;15295;42.658;23.374;2022-10-17T17:46:29;16.20;;;7.13;;